sensor_id;sensor_type;location;lat;lon;timestamp;pressure;altitude;pressure_sealevel;temperature;humidity
11011;BME280;5558;42.702;23.178;2022-12-29T00:02:26;94533.59;;;6.14;100.00
11011;BME280;5558;42.702;23.178;2022-12-29T00:04:52;94529.66;;;6.23;100.00
11011;BME280;5558;42.702;23.178;2022-12-29T00:07:19;94539.38;;;6.22;100.00
11011;BME280;5558;42.702;23.178;2022-12-29T00:09:47;94535.91;;;6.29;100.00
11011;BME280;5558;42.702;23.178;2022-12-29T00:12:14;94543.13;;;6.33;100.00
11011;BME280;5558;42.702;23.178;2022-12-29T00:14:40;94542.13;;;6.34;100.00
11011;BME280;5558;42.702;23.178;2022-12-29T00:17:24;94548.50;;;6.20;100.00
11011;BME280;5558;42.702;23.178;2022-12-29T00:19:51;94559.72;;;6.34;100.00
11011;BME280;5558;42.702;23.178;2022-12-29T00:22:35;94562.78;;;6.31;100.00
11011;BME280;5558;42.702;23.178;2022-12-29T00:25:21;94566.78;;;6.33;100.00
11011;BME280;5558;42.702;23.178;2022-12-29T00:28:07;94572.53;;;6.24;100.00
11011;BME280;5558;42.702;23.178;2022-12-29T00:30:52;94560.25;;;6.17;100.00
11011;BME280;5558;42.702;23.178;2022-12-29T00:33:36;94564.63;;;5.99;100.00
11011;BME280;5558;42.702;23.178;2022-12-29T00:36:23;94576.16;;;5.67;100.00
11011;BME280;5558;42.702;23.178;2022-12-29T00:38:56;94570.00;;;5.79;100.00
11011;BME280;5558;42.702;23.178;2022-12-29T00:41:43;94571.94;;;5.97;100.00
11011;BME280;5558;42.702;23.178;2022-12-29T00:44:27;94573.66;;;6.09;100.00
11011;BME280;5558;42.702;23.178;2022-12-29T00:46:54;94575.22;;;6.17;100.00
11011;BME280;5558;42.702;23.178;2022-12-29T00:49:21;94580.44;;;6.24;100.00
11011;BME280;5558;42.702;23.178;2022-12-29T00:52:01;94573.84;;;6.33;100.00
11011;BME280;5558;42.702;23.178;2022-12-29T00:54:29;94567.59;;;6.34;100.00
11011;BME280;5558;42.702;23.178;2022-12-29T00:56:58;94562.72;;;6.37;100.00
11011;BME280;5558;42.702;23.178;2022-12-29T00:59:25;94571.03;;;6.34;100.00
11011;BME280;5558;42.702;23.178;2022-12-29T01:01:52;94563.25;;;6.46;100.00
11011;BME280;5558;42.702;23.178;2022-12-29T01:04:21;94564.63;;;6.48;100.00
11011;BME280;5558;42.702;23.178;2022-12-29T01:06:48;94569.59;;;6.56;100.00
11011;BME280;5558;42.702;23.178;2022-12-29T01:09:15;94565.28;;;6.62;100.00
11011;BME280;5558;42.702;23.178;2022-12-29T01:12:02;94567.78;;;6.57;100.00
11011;BME280;5558;42.702;23.178;2022-12-29T01:14:29;94562.72;;;6.55;100.00
11011;BME280;5558;42.702;23.178;2022-12-29T01:16:55;94561.13;;;6.54;100.00
11011;BME280;5558;42.702;23.178;2022-12-29T01:19:22;94560.16;;;6.49;100.00
11011;BME280;5558;42.702;23.178;2022-12-29T01:21:49;94556.13;;;6.46;100.00
11011;BME280;5558;42.702;23.178;2022-12-29T01:24:17;94552.06;;;6.50;100.00
11011;BME280;5558;42.702;23.178;2022-12-29T01:26:45;94551.63;;;6.53;100.00
11011;BME280;5558;42.702;23.178;2022-12-29T01:29:13;94552.88;;;6.51;100.00
11011;BME280;5558;42.702;23.178;2022-12-29T01:31:40;94550.88;;;6.46;100.00
11011;BME280;5558;42.702;23.178;2022-12-29T01:34:07;94543.13;;;6.51;100.00
11011;BME280;5558;42.702;23.178;2022-12-29T01:36:33;94537.69;;;6.53;100.00
11011;BME280;5558;42.702;23.178;2022-12-29T01:39:01;94528.53;;;6.55;100.00
11011;BME280;5558;42.702;23.178;2022-12-29T01:41:27;94533.22;;;6.53;100.00
11011;BME280;5558;42.702;23.178;2022-12-29T01:43:55;94525.53;;;6.52;100.00
11011;BME280;5558;42.702;23.178;2022-12-29T01:46:28;94529.59;;;6.54;100.00
11011;BME280;5558;42.702;23.178;2022-12-29T01:49:02;94527.44;;;6.45;100.00
11011;BME280;5558;42.702;23.178;2022-12-29T01:51:31;94523.56;;;6.47;100.00
11011;BME280;5558;42.702;23.178;2022-12-29T01:54:02;94524.94;;;6.50;100.00
11011;BME280;5558;42.702;23.178;2022-12-29T01:56:32;94521.75;;;6.48;100.00
11011;BME280;5558;42.702;23.178;2022-12-29T01:59:02;94521.25;;;6.39;100.00
11011;BME280;5558;42.702;23.178;2022-12-29T02:01:31;94522.63;;;6.42;100.00
11011;BME280;5558;42.702;23.178;2022-12-29T02:03:59;94491.63;;;5.83;100.00
11011;BME280;5558;42.702;23.178;2022-12-29T02:06:28;94517.38;;;5.68;100.00
11011;BME280;5558;42.702;23.178;2022-12-29T02:08:57;94516.88;;;5.77;100.00
11011;BME280;5558;42.702;23.178;2022-12-29T02:11:26;94516.22;;;5.57;100.00
11011;BME280;5558;42.702;23.178;2022-12-29T02:13:54;94522.47;;;5.63;100.00
11011;BME280;5558;42.702;23.178;2022-12-29T02:16:32;94523.03;;;5.34;100.00
11011;BME280;5558;42.702;23.178;2022-12-29T02:19:36;94516.91;;;5.46;100.00
11011;BME280;5558;42.702;23.178;2022-12-29T02:22:18;94513.44;;;5.77;100.00
11011;BME280;5558;42.702;23.178;2022-12-29T02:28:22;94516.06;;;6.08;100.00
11011;BME280;5558;42.702;23.178;2022-12-29T02:31:01;94520.44;;;6.14;100.00
11011;BME280;5558;42.702;23.178;2022-12-29T02:33:38;94511.94;;;6.18;100.00
11011;BME280;5558;42.702;23.178;2022-12-29T02:36:14;94516.16;;;6.19;100.00
11011;BME280;5558;42.702;23.178;2022-12-29T02:38:52;94510.25;;;6.24;100.00
11011;BME280;5558;42.702;23.178;2022-12-29T02:41:29;94475.25;;;6.05;100.00
11011;BME280;5558;42.702;23.178;2022-12-29T02:44:03;94511.78;;;6.32;100.00
11011;BME280;5558;42.702;23.178;2022-12-29T02:46:36;94512.25;;;6.29;100.00
11011;BME280;5558;42.702;23.178;2022-12-29T02:49:09;94515.69;;;6.29;100.00
11011;BME280;5558;42.702;23.178;2022-12-29T02:51:45;94514.78;;;6.35;100.00
11011;BME280;5558;42.702;23.178;2022-12-29T02:54:13;94516.53;;;6.41;100.00
11011;BME280;5558;42.702;23.178;2022-12-29T02:57:00;94510.06;;;6.44;100.00
11011;BME280;5558;42.702;23.178;2022-12-29T02:59:27;94506.63;;;6.43;100.00
11011;BME280;5558;42.702;23.178;2022-12-29T03:02:14;94506.63;;;6.43;100.00
11011;BME280;5558;42.702;23.178;2022-12-29T03:05:06;94503.53;;;6.46;100.00
11011;BME280;5558;42.702;23.178;2022-12-29T03:07:40;94491.81;;;6.49;100.00
11011;BME280;5558;42.702;23.178;2022-12-29T03:10:19;94490.00;;;6.49;100.00
11011;BME280;5558;42.702;23.178;2022-12-29T03:12:55;94493.84;;;6.47;100.00
11011;BME280;5558;42.702;23.178;2022-12-29T03:15:43;94483.91;;;6.31;100.00
11011;BME280;5558;42.702;23.178;2022-12-29T03:18:38;94489.66;;;6.21;100.00
11011;BME280;5558;42.702;23.178;2022-12-29T03:21:10;94489.03;;;6.26;100.00
11011;BME280;5558;42.702;23.178;2022-12-29T03:23:40;94482.94;;;6.25;100.00
11011;BME280;5558;42.702;23.178;2022-12-29T03:26:11;94495.28;;;6.25;100.00
11011;BME280;5558;42.702;23.178;2022-12-29T03:28:41;94490.03;;;6.25;100.00
11011;BME280;5558;42.702;23.178;2022-12-29T03:31:10;94496.09;;;6.25;100.00
11011;BME280;5558;42.702;23.178;2022-12-29T03:33:41;94472.59;;;6.05;100.00
11011;BME280;5558;42.702;23.178;2022-12-29T03:36:13;94490.69;;;6.20;100.00
11011;BME280;5558;42.702;23.178;2022-12-29T03:38:46;94487.03;;;6.21;100.00
11011;BME280;5558;42.702;23.178;2022-12-29T03:41:17;94493.38;;;6.13;100.00
11011;BME280;5558;42.702;23.178;2022-12-29T03:43:45;94494.81;;;6.09;100.00
11011;BME280;5558;42.702;23.178;2022-12-29T03:46:12;94500.72;;;6.05;100.00
11011;BME280;5558;42.702;23.178;2022-12-29T03:48:40;94509.69;;;5.97;100.00
11011;BME280;5558;42.702;23.178;2022-12-29T03:51:07;94513.19;;;5.91;100.00
11011;BME280;5558;42.702;23.178;2022-12-29T03:53:33;94509.75;;;5.91;100.00
11011;BME280;5558;42.702;23.178;2022-12-29T03:56:00;94508.91;;;5.90;100.00
11011;BME280;5558;42.702;23.178;2022-12-29T03:58:27;94514.84;;;5.86;100.00
11011;BME280;5558;42.702;23.178;2022-12-29T04:00:53;94516.44;;;5.80;100.00
11011;BME280;5558;42.702;23.178;2022-12-29T04:03:20;94505.28;;;5.60;100.00
11011;BME280;5558;42.702;23.178;2022-12-29T04:05:48;94519.41;;;5.66;100.00
11011;BME280;5558;42.702;23.178;2022-12-29T04:08:15;94522.84;;;5.60;100.00
11011;BME280;5558;42.702;23.178;2022-12-29T04:10:42;94517.28;;;5.50;100.00
11011;BME280;5558;42.702;23.178;2022-12-29T04:13:08;94516.19;;;5.33;100.00
11011;BME280;5558;42.702;23.178;2022-12-29T04:15:36;94520.31;;;5.16;100.00
11011;BME280;5558;42.702;23.178;2022-12-29T04:18:02;94518.91;;;5.13;100.00
11011;BME280;5558;42.702;23.178;2022-12-29T04:20:29;94517.53;;;5.11;100.00
11011;BME280;5558;42.702;23.178;2022-12-29T04:23:15;94512.88;;;5.06;100.00
11011;BME280;5558;42.702;23.178;2022-12-29T04:25:45;94519.00;;;5.00;100.00
11011;BME280;5558;42.702;23.178;2022-12-29T04:28:12;94512.38;;;4.91;100.00
11011;BME280;5558;42.702;23.178;2022-12-29T04:30:39;94513.38;;;4.90;100.00
11011;BME280;5558;42.702;23.178;2022-12-29T04:33:05;94518.88;;;4.82;100.00
11011;BME280;5558;42.702;23.178;2022-12-29T04:35:32;94520.72;;;4.75;100.00
11011;BME280;5558;42.702;23.178;2022-12-29T04:37:59;94520.53;;;4.70;100.00
11011;BME280;5558;42.702;23.178;2022-12-29T04:40:27;94528.97;;;4.78;100.00
11011;BME280;5558;42.702;23.178;2022-12-29T04:42:54;94524.69;;;4.84;100.00
11011;BME280;5558;42.702;23.178;2022-12-29T04:45:20;94529.94;;;4.84;100.00
11011;BME280;5558;42.702;23.178;2022-12-29T04:47:47;94524.72;;;4.77;100.00
11011;BME280;5558;42.702;23.178;2022-12-29T04:50:14;94533.59;;;4.83;100.00
11011;BME280;5558;42.702;23.178;2022-12-29T04:52:40;94538.19;;;4.87;100.00
11011;BME280;5558;42.702;23.178;2022-12-29T04:55:07;94547.66;;;4.95;100.00
11011;BME280;5558;42.702;23.178;2022-12-29T04:57:36;94551.47;;;5.06;100.00
11011;BME280;5558;42.702;23.178;2022-12-29T05:00:03;94539.53;;;5.03;100.00
11011;BME280;5558;42.702;23.178;2022-12-29T05:02:30;94543.94;;;5.16;100.00
11011;BME280;5558;42.702;23.178;2022-12-29T05:04:57;94552.78;;;5.21;100.00
11011;BME280;5558;42.702;23.178;2022-12-29T05:07:24;94549.16;;;5.22;100.00
11011;BME280;5558;42.702;23.178;2022-12-29T05:09:51;94556.06;;;5.10;100.00
11011;BME280;5558;42.702;23.178;2022-12-29T05:12:18;94555.59;;;5.20;100.00
11011;BME280;5558;42.702;23.178;2022-12-29T05:14:46;94552.94;;;5.26;100.00
11011;BME280;5558;42.702;23.178;2022-12-29T05:20:34;94558.38;;;5.31;100.00
11011;BME280;5558;42.702;23.178;2022-12-29T05:23:01;94553.91;;;5.38;100.00
11011;BME280;5558;42.702;23.178;2022-12-29T05:25:28;94561.72;;;5.45;100.00
11011;BME280;5558;42.702;23.178;2022-12-29T05:27:55;94564.19;;;5.46;100.00
11011;BME280;5558;42.702;23.178;2022-12-29T05:30:23;94556.69;;;5.43;100.00
11011;BME280;5558;42.702;23.178;2022-12-29T05:32:49;94552.47;;;5.42;100.00
11011;BME280;5558;42.702;23.178;2022-12-29T05:35:16;94554.06;;;5.43;100.00
11011;BME280;5558;42.702;23.178;2022-12-29T05:37:43;94559.09;;;5.45;100.00
11011;BME280;5558;42.702;23.178;2022-12-29T05:40:10;94556.66;;;5.50;100.00
11011;BME280;5558;42.702;23.178;2022-12-29T05:42:37;94558.06;;;5.52;100.00
11011;BME280;5558;42.702;23.178;2022-12-29T05:45:05;94557.84;;;5.54;100.00
11011;BME280;5558;42.702;23.178;2022-12-29T05:47:34;94556.25;;;5.53;100.00
11011;BME280;5558;42.702;23.178;2022-12-29T05:50:01;94564.53;;;5.50;100.00
11011;BME280;5558;42.702;23.178;2022-12-29T05:52:43;94559.91;;;5.45;100.00
11011;BME280;5558;42.702;23.178;2022-12-29T05:55:10;94568.31;;;5.23;100.00
11011;BME280;5558;42.702;23.178;2022-12-29T05:57:37;94558.94;;;5.40;100.00
11011;BME280;5558;42.702;23.178;2022-12-29T06:00:05;94582.94;;;5.43;100.00
11011;BME280;5558;42.702;23.178;2022-12-29T06:02:33;94573.22;;;5.50;100.00
11011;BME280;5558;42.702;23.178;2022-12-29T06:05:00;94543.88;;;5.29;100.00
11011;BME280;5558;42.702;23.178;2022-12-29T06:07:27;94576.63;;;5.57;100.00
11011;BME280;5558;42.702;23.178;2022-12-29T06:09:53;94574.81;;;5.58;100.00
11011;BME280;5558;42.702;23.178;2022-12-29T06:12:20;94544.81;;;5.41;100.00
11011;BME280;5558;42.702;23.178;2022-12-29T06:14:47;94575.75;;;5.70;100.00
11011;BME280;5558;42.702;23.178;2022-12-29T06:17:14;94575.88;;;5.81;100.00
11011;BME280;5558;42.702;23.178;2022-12-29T06:19:42;94566.16;;;5.88;100.00
11011;BME280;5558;42.702;23.178;2022-12-29T06:22:09;94571.09;;;6.03;100.00
11011;BME280;5558;42.702;23.178;2022-12-29T06:24:37;94576.44;;;6.14;100.00
11011;BME280;5558;42.702;23.178;2022-12-29T06:27:04;94574.19;;;6.18;100.00
11011;BME280;5558;42.702;23.178;2022-12-29T06:29:30;94576.31;;;6.28;100.00
11011;BME280;5558;42.702;23.178;2022-12-29T06:31:57;94577.06;;;6.35;100.00
11011;BME280;5558;42.702;23.178;2022-12-29T06:34:24;94572.34;;;6.43;100.00
11011;BME280;5558;42.702;23.178;2022-12-29T06:36:52;94576.75;;;6.49;100.00
11011;BME280;5558;42.702;23.178;2022-12-29T06:39:19;94576.03;;;6.60;100.00
11011;BME280;5558;42.702;23.178;2022-12-29T06:41:46;94575.59;;;6.63;100.00
11011;BME280;5558;42.702;23.178;2022-12-29T06:44:12;94578.22;;;6.63;100.00
11011;BME280;5558;42.702;23.178;2022-12-29T06:46:39;94568.16;;;6.60;100.00
11011;BME280;5558;42.702;23.178;2022-12-29T06:49:06;94578.44;;;6.62;100.00
11011;BME280;5558;42.702;23.178;2022-12-29T06:51:32;94579.03;;;6.64;100.00
11011;BME280;5558;42.702;23.178;2022-12-29T06:54:00;94582.84;;;6.68;100.00
11011;BME280;5558;42.702;23.178;2022-12-29T06:56:27;94583.63;;;6.68;100.00
11011;BME280;5558;42.702;23.178;2022-12-29T06:58:54;94590.75;;;6.68;100.00
11011;BME280;5558;42.702;23.178;2022-12-29T07:01:21;94585.72;;;6.66;100.00
11011;BME280;5558;42.702;23.178;2022-12-29T07:03:47;94554.47;;;6.52;100.00
11011;BME280;5558;42.702;23.178;2022-12-29T07:06:14;94586.78;;;6.77;100.00
11011;BME280;5558;42.702;23.178;2022-12-29T07:08:41;94581.97;;;6.74;100.00
11011;BME280;5558;42.702;23.178;2022-12-29T07:11:09;94586.38;;;6.80;100.00
11011;BME280;5558;42.702;23.178;2022-12-29T07:13:36;94588.69;;;6.70;100.00
11011;BME280;5558;42.702;23.178;2022-12-29T07:16:05;94587.69;;;6.71;100.00
11011;BME280;5558;42.702;23.178;2022-12-29T07:18:32;94586.00;;;6.76;100.00
11011;BME280;5558;42.702;23.178;2022-12-29T07:20:59;94590.75;;;6.68;100.00
11011;BME280;5558;42.702;23.178;2022-12-29T07:23:26;94588.34;;;6.66;100.00
11011;BME280;5558;42.702;23.178;2022-12-29T07:25:59;94589.47;;;6.52;100.00
11011;BME280;5558;42.702;23.178;2022-12-29T07:28:27;94583.78;;;6.55;100.00
11011;BME280;5558;42.702;23.178;2022-12-29T07:30:53;94593.69;;;6.53;100.00
11011;BME280;5558;42.702;23.178;2022-12-29T07:33:20;94589.56;;;6.64;100.00
11011;BME280;5558;42.702;23.178;2022-12-29T07:35:47;94594.19;;;6.44;100.00
11011;BME280;5558;42.702;23.178;2022-12-29T07:38:14;94591.72;;;6.24;100.00
11011;BME280;5558;42.702;23.178;2022-12-29T07:40:41;94593.59;;;5.55;100.00
11011;BME280;5558;42.702;23.178;2022-12-29T07:43:08;94587.94;;;5.58;100.00
11011;BME280;5558;42.702;23.178;2022-12-29T07:45:36;94588.66;;;5.71;100.00
11011;BME280;5558;42.702;23.178;2022-12-29T07:48:03;94598.88;;;5.86;100.00
11011;BME280;5558;42.702;23.178;2022-12-29T07:50:32;94595.06;;;6.13;100.00
11011;BME280;5558;42.702;23.178;2022-12-29T07:53:00;94593.13;;;6.02;100.00
11011;BME280;5558;42.702;23.178;2022-12-29T07:55:26;94608.09;;;5.64;100.00
11011;BME280;5558;42.702;23.178;2022-12-29T07:57:53;94602.41;;;5.23;100.00
11011;BME280;5558;42.702;23.178;2022-12-29T08:00:20;94602.13;;;5.44;100.00
11011;BME280;5558;42.702;23.178;2022-12-29T08:02:48;94607.75;;;5.54;100.00
11011;BME280;5558;42.702;23.178;2022-12-29T08:05:15;94603.09;;;5.12;100.00
11011;BME280;5558;42.702;23.178;2022-12-29T08:07:42;94597.56;;;5.26;100.00
11011;BME280;5558;42.702;23.178;2022-12-29T08:10:10;94610.25;;;5.36;100.00
11011;BME280;5558;42.702;23.178;2022-12-29T08:12:38;94609.50;;;5.60;100.00
11011;BME280;5558;42.702;23.178;2022-12-29T08:15:06;94605.31;;;5.52;100.00
11011;BME280;5558;42.702;23.178;2022-12-29T08:17:33;94608.03;;;5.39;100.00
11011;BME280;5558;42.702;23.178;2022-12-29T08:20:02;94600.88;;;5.53;100.00
11011;BME280;5558;42.702;23.178;2022-12-29T08:22:29;94602.59;;;5.34;100.00
11011;BME280;5558;42.702;23.178;2022-12-29T08:24:56;94610.28;;;5.67;100.00
11011;BME280;5558;42.702;23.178;2022-12-29T08:27:22;94608.03;;;5.70;100.00
11011;BME280;5558;42.702;23.178;2022-12-29T08:29:49;94612.91;;;5.67;100.00
11011;BME280;5558;42.702;23.178;2022-12-29T08:32:16;94565.38;;;5.44;100.00
11011;BME280;5558;42.702;23.178;2022-12-29T08:34:42;94612.38;;;5.52;100.00
11011;BME280;5558;42.702;23.178;2022-12-29T08:37:10;94612.97;;;5.98;100.00
11011;BME280;5558;42.702;23.178;2022-12-29T08:39:37;94618.00;;;5.99;100.00
11011;BME280;5558;42.702;23.178;2022-12-29T08:42:04;94611.59;;;5.89;100.00
11011;BME280;5558;42.702;23.178;2022-12-29T08:44:31;94611.00;;;6.18;100.00
11011;BME280;5558;42.702;23.178;2022-12-29T08:46:58;94610.50;;;6.28;100.00
11011;BME280;5558;42.702;23.178;2022-12-29T08:49:24;94612.97;;;5.98;100.00
11011;BME280;5558;42.702;23.178;2022-12-29T08:51:51;94603.81;;;6.07;100.00
11011;BME280;5558;42.702;23.178;2022-12-29T08:54:19;94606.16;;;5.84;100.00
11011;BME280;5558;42.702;23.178;2022-12-29T08:56:46;94601.47;;;5.92;100.00
11011;BME280;5558;42.702;23.178;2022-12-29T08:59:12;94601.19;;;6.32;100.00
11011;BME280;5558;42.702;23.178;2022-12-29T09:01:39;94598.88;;;6.42;100.00
11011;BME280;5558;42.702;23.178;2022-12-29T09:04:06;94597.97;;;6.05;100.00
11011;BME280;5558;42.702;23.178;2022-12-29T09:06:33;94600.66;;;5.92;100.00
11011;BME280;5558;42.702;23.178;2022-12-29T09:09:00;94592.44;;;6.13;100.00
11011;BME280;5558;42.702;23.178;2022-12-29T09:11:28;94591.72;;;6.24;100.00
11011;BME280;5558;42.702;23.178;2022-12-29T09:13:55;94590.16;;;6.66;100.00
11011;BME280;5558;42.702;23.178;2022-12-29T09:16:23;94587.31;;;6.67;100.00
11011;BME280;5558;42.702;23.178;2022-12-29T09:18:50;94580.00;;;6.87;100.00
11011;BME280;5558;42.702;23.178;2022-12-29T09:21:17;94580.38;;;6.91;100.00
11011;BME280;5558;42.702;23.178;2022-12-29T09:23:43;94573.19;;;7.16;100.00
11011;BME280;5558;42.702;23.178;2022-12-29T09:26:10;94578.47;;;7.16;100.00
11011;BME280;5558;42.702;23.178;2022-12-29T09:28:38;94571.94;;;7.36;100.00
11011;BME280;5558;42.702;23.178;2022-12-29T09:31:05;94539.22;;;6.60;100.00
11011;BME280;5558;42.702;23.178;2022-12-29T09:33:32;94566.41;;;6.90;100.00
11011;BME280;5558;42.702;23.178;2022-12-29T09:35:59;94562.44;;;6.63;100.00
11011;BME280;5558;42.702;23.178;2022-12-29T09:38:27;94561.28;;;6.95;100.00
11011;BME280;5558;42.702;23.178;2022-12-29T09:40:56;94556.19;;;6.82;100.00
11011;BME280;5558;42.702;23.178;2022-12-29T09:44:00;94554.00;;;6.61;100.00
11011;BME280;5558;42.702;23.178;2022-12-29T09:46:34;94549.59;;;6.55;100.00
11011;BME280;5558;42.702;23.178;2022-12-29T09:49:13;94553.94;;;6.43;100.00
11011;BME280;5558;42.702;23.178;2022-12-29T09:51:46;94545.78;;;6.51;100.00
11011;BME280;5558;42.702;23.178;2022-12-29T09:54:24;94553.19;;;6.36;100.00
11011;BME280;5558;42.702;23.178;2022-12-29T09:56:53;94542.53;;;6.31;100.00
11011;BME280;5558;42.702;23.178;2022-12-29T09:59:25;94542.13;;;6.34;100.00
11011;BME280;5558;42.702;23.178;2022-12-29T10:01:57;94511.22;;;6.30;100.00
11011;BME280;5558;42.702;23.178;2022-12-29T10:04:26;94537.03;;;6.57;100.00
11011;BME280;5558;42.702;23.178;2022-12-29T10:06:57;94534.81;;;6.90;100.00
11011;BME280;5558;42.702;23.178;2022-12-29T10:09:33;94540.31;;;7.07;100.00
11011;BME280;5558;42.702;23.178;2022-12-29T10:12:13;94529.31;;;7.28;100.00
11011;BME280;5558;42.702;23.178;2022-12-29T10:14:57;94530.06;;;7.47;100.00
11011;BME280;5558;42.702;23.178;2022-12-29T10:17:31;94517.09;;;7.33;100.00
11011;BME280;5558;42.702;23.178;2022-12-29T10:20:10;94520.41;;;7.70;100.00
11011;BME280;5558;42.702;23.178;2022-12-29T10:22:52;94520.19;;;7.72;100.00
11011;BME280;5558;42.702;23.178;2022-12-29T10:25:25;94519.53;;;7.76;100.00
11011;BME280;5558;42.702;23.178;2022-12-29T10:27:55;94516.19;;;7.81;100.00
11011;BME280;5558;42.702;23.178;2022-12-29T10:30:25;94514.06;;;8.12;100.00
11011;BME280;5558;42.702;23.178;2022-12-29T10:32:56;94512.00;;;7.91;100.00
11011;BME280;5558;42.702;23.178;2022-12-29T10:35:26;94504.81;;;7.69;100.00
11011;BME280;5558;42.702;23.178;2022-12-29T10:37:58;94503.38;;;7.84;100.00
11011;BME280;5558;42.702;23.178;2022-12-29T10:40:32;94505.09;;;8.02;100.00
11011;BME280;5558;42.702;23.178;2022-12-29T10:43:11;94497.16;;;7.79;100.00
11011;BME280;5558;42.702;23.178;2022-12-29T10:45:42;94505.34;;;8.00;100.00
11011;BME280;5558;42.702;23.178;2022-12-29T10:48:18;94495.38;;;8.02;100.00
11011;BME280;5558;42.702;23.178;2022-12-29T10:50:47;94495.72;;;8.17;100.00
11011;BME280;5558;42.702;23.178;2022-12-29T10:53:19;94492.44;;;8.33;99.63
11011;BME280;5558;42.702;23.178;2022-12-29T10:55:47;94496.44;;;8.59;99.86
11011;BME280;5558;42.702;23.178;2022-12-29T10:58:16;94490.81;;;8.32;98.97
11011;BME280;5558;42.702;23.178;2022-12-29T11:00:49;94491.16;;;8.59;97.86
11011;BME280;5558;42.702;23.178;2022-12-29T11:03:41;94485.53;;;8.44;98.68
11011;BME280;5558;42.702;23.178;2022-12-29T11:06:14;94481.53;;;8.53;98.09
11011;BME280;5558;42.702;23.178;2022-12-29T11:08:55;94482.53;;;8.75;96.80
11011;BME280;5558;42.702;23.178;2022-12-29T11:11:25;94478.06;;;8.76;95.72
11011;BME280;5558;42.702;23.178;2022-12-29T11:13:57;94474.44;;;8.42;97.53
11011;BME280;5558;42.702;23.178;2022-12-29T11:16:30;94470.88;;;8.25;99.08
11011;BME280;5558;42.702;23.178;2022-12-29T11:18:58;94470.63;;;8.03;100.00
11011;BME280;5558;42.702;23.178;2022-12-29T11:21:30;94463.63;;;7.86;100.00
11011;BME280;5558;42.702;23.178;2022-12-29T11:23:58;94467.16;;;7.80;100.00
11011;BME280;5558;42.702;23.178;2022-12-29T11:26:26;94471.28;;;7.76;100.00
11011;BME280;5558;42.702;23.178;2022-12-29T11:29:16;94465.69;;;8.07;100.00
11011;BME280;5558;42.702;23.178;2022-12-29T11:31:46;94474.31;;;8.37;100.00
11011;BME280;5558;42.702;23.178;2022-12-29T11:34:18;94464.09;;;8.06;100.00
11011;BME280;5558;42.702;23.178;2022-12-29T11:36:45;94460.63;;;8.05;100.00
11011;BME280;5558;42.702;23.178;2022-12-29T11:39:30;94459.63;;;8.29;100.00
11011;BME280;5558;42.702;23.178;2022-12-29T11:41:57;94454.81;;;8.38;100.00
11011;BME280;5558;42.702;23.178;2022-12-29T11:44:26;94455.84;;;8.48;100.00
11011;BME280;5558;42.702;23.178;2022-12-29T11:46:54;94454.91;;;8.54;100.00
11011;BME280;5558;42.702;23.178;2022-12-29T11:49:23;94459.63;;;8.29;100.00
11011;BME280;5558;42.702;23.178;2022-12-29T11:51:51;94458.72;;;8.47;100.00
11011;BME280;5558;42.702;23.178;2022-12-29T11:54:24;94457.72;;;8.25;100.00
11011;BME280;5558;42.702;23.178;2022-12-29T11:56:52;94452.84;;;8.56;100.00
11011;BME280;5558;42.702;23.178;2022-12-29T11:59:41;94463.75;;;8.48;100.00
11011;BME280;5558;42.702;23.178;2022-12-29T12:02:36;94457.53;;;8.66;100.00
11011;BME280;5558;42.702;23.178;2022-12-29T12:05:12;94445.28;;;8.60;100.00
11011;BME280;5558;42.702;23.178;2022-12-29T12:07:42;94442.22;;;8.80;99.15
11011;BME280;5558;42.702;23.178;2022-12-29T12:10:19;94446.06;;;9.00;97.89
11011;BME280;5558;42.702;23.178;2022-12-29T12:12:52;94433.09;;;8.99;96.67
11011;BME280;5558;42.702;23.178;2022-12-29T12:15:23;94438.19;;;9.17;96.01
11011;BME280;5558;42.702;23.178;2022-12-29T12:17:59;94438.91;;;9.12;96.59
11011;BME280;5558;42.702;23.178;2022-12-29T12:20:36;94443.03;;;9.08;97.32
11011;BME280;5558;42.702;23.178;2022-12-29T12:23:13;94429.66;;;8.98;97.49
11011;BME280;5558;42.702;23.178;2022-12-29T12:25:50;94434.88;;;9.21;97.40
11011;BME280;5558;42.702;23.178;2022-12-29T12:28:21;94423.97;;;9.18;97.09
11011;BME280;5558;42.702;23.178;2022-12-29T12:30:55;94419.34;;;9.25;96.23
11011;BME280;5558;42.702;23.178;2022-12-29T12:33:28;94420.97;;;9.42;95.24
11011;BME280;5558;42.702;23.178;2022-12-29T12:36:14;94412.25;;;9.75;93.41
11011;BME280;5558;42.702;23.178;2022-12-29T12:38:54;94413.22;;;9.85;93.73
11011;BME280;5558;42.702;23.178;2022-12-29T12:41:28;94416.09;;;9.67;93.28
11011;BME280;5558;42.702;23.178;2022-12-29T12:44:01;94413.31;;;9.13;97.04
11011;BME280;5558;42.702;23.178;2022-12-29T12:52:47;94422.84;;;9.30;95.67
11011;BME280;5558;42.702;23.178;2022-12-29T12:55:30;94421.09;;;9.19;96.42
11011;BME280;5558;42.702;23.178;2022-12-29T12:58:05;94418.63;;;9.29;96.22
11011;BME280;5558;42.702;23.178;2022-12-29T13:00:43;94406.00;;;9.48;95.37
11011;BME280;5558;42.702;23.178;2022-12-29T13:03:23;94411.69;;;9.56;93.02
11011;BME280;5558;42.702;23.178;2022-12-29T13:06:06;94414.91;;;9.58;92.79
11011;BME280;5558;42.702;23.178;2022-12-29T13:09:15;94414.09;;;9.58;94.42
11011;BME280;5558;42.702;23.178;2022-12-29T13:11:55;94417.22;;;9.38;94.24
11011;BME280;5558;42.702;23.178;2022-12-29T13:14:34;94416.69;;;9.25;96.33
11011;BME280;5558;42.702;23.178;2022-12-29T13:17:10;94416.53;;;9.15;97.51
11011;BME280;5558;42.702;23.178;2022-12-29T13:19:41;94411.84;;;9.33;96.43
11011;BME280;5558;42.702;23.178;2022-12-29T13:22:16;94415.81;;;9.36;96.66
11011;BME280;5558;42.702;23.178;2022-12-29T13:24:57;94418.41;;;9.47;95.04
11011;BME280;5558;42.702;23.178;2022-12-29T13:27:35;94388.00;;;9.17;96.10
11011;BME280;5558;42.702;23.178;2022-12-29T13:30:08;94423.78;;;9.52;96.61
11011;BME280;5558;42.702;23.178;2022-12-29T13:32:45;94419.38;;;9.58;96.57
11011;BME280;5558;42.702;23.178;2022-12-29T13:38:10;94428.53;;;9.67;94.60
11011;BME280;5558;42.702;23.178;2022-12-29T13:40:43;94413.59;;;9.61;95.83